LTFE/BJV METAR and TAF weather

Enter ICAO airport designator
Station Type Date Time Source
LTFE METAR 2019/10/15 08:50 UTC NOAA

LTFE 150850Z 28004KT 240V320 7000 FEW015 23/20 Q1016 NOSIG


Station Type Date Time Source
LTFE Decoded METAR 2019/10/15 08:50 UTC NOAA

Bodrum Milas Airport, Turkey (LTFE) 37-14-53N 027-40-55E
Oct 15, 2019 - 04:50 AM EDT / 2019.10.15 0850 UTC
Wind: from the W (280 degrees) at 5 MPH (4 KT) (direction variable):0
Visibility: 4 mile(s):0
Sky conditions: mostly clear
Temperature: 73 F (23 C)
Dew Point: 68 F (20 C)
Relative Humidity: 83%
Pressure (altimeter): 30.00 in. Hg (1016 hPa)
ob: LTFE 150850Z 28004KT 240V320 7000 FEW015 23/20 Q1016 NOSIG
cycle: 9

Station Type Date Time Source
LTFE TAF 2019/10/15 06:03 UTC NOAA

TAF LTFE 150440Z 1506/1606 VRB02KT 2000 BR NSC
BECMG 1506/1507 4000
BECMG 1507/1509 CAVOK
BECMG 1509/1511 26012KT
BECMG 1511/1513 FEW035 BKN200
BECMG 1514/1517 VRB02KT

Example: see airport list